TLPL/UVF METAR and TAF weather

Enter ICAO airport designator
Station Type Date Time Source
TLPL METAR 2022/12/04 06:00 UTC NOAA

TLPL 040600Z 00000KT 9999 SCT024 24/21 Q1010 NOSIG


Station Type Date Time Source
TLPL Decoded METAR 2022/12/04 06:00 UTC NOAA

Hewanorra International Airport, Saint Lucia (TLPL) 13-45N 060-57W 10M
Dec 04, 2022 - 01:00 AM EST / 2022.12.04 0600 UTC
Wind: Calm:0
Visibility: greater than 7 mile(s):0
Sky conditions: partly cloudy
Temperature: 75 F (24 C)
Dew Point: 69 F (21 C)
Relative Humidity: 83%
Pressure (altimeter): 29.83 in. Hg (1010 hPa)
ob: TLPL 040600Z 00000KT 9999 SCT024 24/21 Q1010 NOSIG
cycle: 6

Station Type Date Time Source
TLPL TAF 2022/12/04 06:06 UTC NOAA

TAF TLPL 040500Z 0406/0506 07009KT 9999 SCT023 PROB30
TEMPO 0406/0412 SHRA

Example: see airport list